Time;durP1;ratioP1;P1;durP2;ratioP2;P2;SDS_P1;SDS_P2;PMS_P1;PMS_P2;Temp;Humidity;BMP_temperature;BMP_pressure;BME280_temperature;BME280_humidity;BME280_pressure;Samples;Min_cycle;Max_cycle;Signal;HPM_P1;HPM_P2
2023/01/04 00:02:11;;;;;;;8.02;1.10;;;;;;;;;;6184217;23;20060;-66
2023/01/04 00:04:40;;;;;;;11.98;1.17;;;;;;;;;;6185770;23;20012;-64
2023/01/04 00:07:07;;;;;;;7.07;1.00;;;;;;;;;;6177466;23;20071;-64
2023/01/04 00:09:35;;;;;;;6.97;0.90;;;;;;;;;;6156971;23;20392;-64
2023/01/04 00:12:03;;;;;;;8.97;0.70;;;;;;;;;;6179502;23;20361;-58
2023/01/04 00:14:30;;;;;;;10.18;1.23;;;;;;;;;;6173953;23;20513;-65
2023/01/04 00:16:58;;;;;;;8.82;0.98;;;;;;;;;;6185701;23;20390;-65
2023/01/04 00:19:26;;;;;;;10.70;1.23;;;;;;;;;;6171855;23;20456;-64
2023/01/04 00:21:55;;;;;;;12.43;1.05;;;;;;;;;;6181659;23;20099;-65
2023/01/04 00:24:22;;;;;;;6.00;0.73;;;;;;;;;;6174979;23;20489;-65
2023/01/04 00:26:50;;;;;;;10.52;1.48;;;;;;;;;;6189901;23;20027;-64
2023/01/04 00:29:17;;;;;;;8.48;1.02;;;;;;;;;;6183458;23;20017;-64
2023/01/04 00:31:45;;;;;;;9.13;0.85;;;;;;;;;;6181272;23;20017;-64
2023/01/04 00:34:14;;;;;;;8.50;1.38;;;;;;;;;;6178886;23;20267;-65
2023/01/04 00:36:42;;;;;;;6.07;0.70;;;;;;;;;;6179666;23;20023;-65
2023/01/04 00:39:14;;;;;;;8.88;1.17;;;;;;;;;;6176918;23;20419;-64
2023/01/04 00:41:42;;;;;;;12.68;1.05;;;;;;;;;;6183295;23;20047;-66
2023/01/04 00:44:27;;;;;;;10.35;0.82;;;;;;;;;;6182654;23;20017;-66
2023/01/04 00:46:55;;;;;;;5.68;1.27;;;;;;;;;;6188323;23;20070;-64
2023/01/04 00:49:23;;;;;;;14.37;1.23;;;;;;;;;;6173465;23;20044;-61
2023/01/04 00:51:51;;;;;;;5.75;1.00;;;;;;;;;;6191779;23;20620;-65
2023/01/04 00:54:20;;;;;;;6.63;0.98;;;;;;;;;;6171004;23;20023;-64
2023/01/04 00:56:52;;;;;;;5.57;0.60;;;;;;;;;;6189600;23;20020;-66
2023/01/04 00:59:20;;;;;;;10.57;1.35;;;;;;;;;;6190119;23;20013;-64
2023/01/04 01:01:50;;;;;;;9.83;1.00;;;;;;;;;;6188099;23;20024;-65
2023/01/04 01:04:19;;;;;;;6.28;0.77;;;;;;;;;;6171781;23;20104;-65
2023/01/04 01:06:48;;;;;;;11.40;1.10;;;;;;;;;;6193938;23;20016;-67
2023/01/04 01:09:16;;;;;;;8.90;1.15;;;;;;;;;;6176283;23;20024;-65
2023/01/04 01:11:47;;;;;;;7.85;1.20;;;;;;;;;;6191185;23;20489;-64
2023/01/04 01:14:17;;;;;;;10.23;1.53;;;;;;;;;;6192733;23;20051;-64
2023/01/04 01:16:49;;;;;;;15.20;1.50;;;;;;;;;;6180595;23;20032;-65
2023/01/04 01:19:23;;;;;;;13.65;1.73;;;;;;;;;;6193059;23;20028;-62
2023/01/04 01:21:51;;;;;;;8.48;1.35;;;;;;;;;;6183908;23;20470;-65
2023/01/04 01:24:20;;;;;;;10.95;1.50;;;;;;;;;;6193902;23;20016;-65
2023/01/04 01:26:49;;;;;;;10.80;1.57;;;;;;;;;;6181019;23;20099;-65
2023/01/04 01:29:16;;;;;;;9.05;1.20;;;;;;;;;;6186122;23;20016;-65
2023/01/04 01:31:44;;;;;;;13.88;1.30;;;;;;;;;;6188522;23;20485;-65
2023/01/04 01:34:15;;;;;;;16.40;1.20;;;;;;;;;;6179611;23;20071;-66
2023/01/04 01:36:42;;;;;;;12.27;1.42;;;;;;;;;;6190535;23;20044;-65
2023/01/04 01:39:10;;;;;;;10.93;1.20;;;;;;;;;;6178280;23;20101;-65
2023/01/04 01:41:38;;;;;;;11.20;1.20;;;;;;;;;;6189792;23;20020;-65
2023/01/04 01:44:26;;;;;;;12.50;1.02;;;;;;;;;;6178438;23;20509;-65
2023/01/04 01:46:55;;;;;;;13.95;1.30;;;;;;;;;;6162981;23;20048;-66
2023/01/04 01:49:24;;;;;;;14.25;2.22;;;;;;;;;;6169898;23;20021;-65
2023/01/04 01:51:52;;;;;;;13.47;1.37;;;;;;;;;;6190761;23;20040;-63
2023/01/04 01:54:25;;;;;;;10.85;1.70;;;;;;;;;;6183845;23;20448;-62
2023/01/04 01:56:55;;;;;;;7.50;1.05;;;;;;;;;;6175539;23;20059;-65
2023/01/04 01:59:24;;;;;;;17.77;2.10;;;;;;;;;;6189305;23;20463;-58
2023/01/04 02:01:52;;;;;;;15.60;1.23;;;;;;;;;;6190416;23;20070;-65
2023/01/04 02:04:20;;;;;;;13.40;1.90;;;;;;;;;;6159122;23;20020;-64
2023/01/04 02:06:49;;;;;;;13.23;1.88;;;;;;;;;;6185954;23;20020;-65
2023/01/04 02:09:18;;;;;;;12.80;1.55;;;;;;;;;;6180221;23;20182;-64
2023/01/04 02:11:45;;;;;;;11.27;1.20;;;;;;;;;;6182168;23;20016;-66
2023/01/04 02:14:28;;;;;;;13.73;1.63;;;;;;;;;;6183634;23;20023;-64
2023/01/04 02:17:06;;;;;;;16.10;1.90;;;;;;;;;;6181119;23;20337;-66
2023/01/04 02:19:50;;;;;;;14.88;1.42;;;;;;;;;;6189562;23;20016;-64
2023/01/04 02:22:33;;;;;;;11.23;1.60;;;;;;;;;;6170493;23;20021;-64
2023/01/04 02:25:17;;;;;;;11.63;1.45;;;;;;;;;;6185703;23;20320;-65
2023/01/04 02:27:48;;;;;;;12.77;1.42;;;;;;;;;;6188922;23;20116;-65
2023/01/04 02:30:41;;;;;;;15.83;1.90;;;;;;;;;;6181624;23;20031;-65
2023/01/04 02:33:19;;;;;;;10.55;1.17;;;;;;;;;;6183766;23;20043;-65
2023/01/04 02:35:51;;;;;;;15.02;1.30;;;;;;;;;;6161381;23;20678;-64
2023/01/04 02:38:22;;;;;;;9.25;1.05;;;;;;;;;;6191958;23;20016;-65
2023/01/04 02:41:12;;;;;;;9.82;1.55;;;;;;;;;;6186600;23;20509;-64
2023/01/04 02:46:34;;;;;;;12.80;1.58;;;;;;;;;;6151913;23;20103;-66
2023/01/04 02:51:48;;;;;;;12.23;1.42;;;;;;;;;;6183923;23;20459;-65
2023/01/04 02:54:18;;;;;;;8.98;1.20;;;;;;;;;;6160227;23;20008;-65
2023/01/04 02:56:53;;;;;;;15.07;1.07;;;;;;;;;;6190167;23;20059;-65
2023/01/04 02:59:43;;;;;;;9.75;1.20;;;;;;;;;;6184486;23;20013;-64
2023/01/04 03:08:01;;;;;;;9.73;1.13;;;;;;;;;;6164275;23;20098;-65
2023/01/04 03:10:35;;;;;;;10.50;2.13;;;;;;;;;;6180388;23;20476;-65
2023/01/04 03:13:04;;;;;;;10.32;1.10;;;;;;;;;;6168218;23;20078;-57
2023/01/04 03:15:34;;;;;;;7.28;1.23;;;;;;;;;;6185174;23;20020;-64
2023/01/04 03:18:05;;;;;;;7.40;1.13;;;;;;;;;;6178288;23;20407;-64
2023/01/04 03:20:34;;;;;;;9.50;0.95;;;;;;;;;;6182866;23;20067;-64
2023/01/04 03:37:15;;;;;;;12.73;1.37;;;;;;;;;;6079488;23;20072;-64
2023/01/04 03:48:30;;;;;;;6.70;1.15;;;;;;;;;;6087560;23;20045;-63
2023/01/04 03:51:05;;;;;;;5.40;0.57;;;;;;;;;;6094476;23;20429;-63
2023/01/04 03:53:37;;;;;;;4.47;0.57;;;;;;;;;;6068772;23;20044;-64
2023/01/04 03:56:06;;;;;;;6.55;0.98;;;;;;;;;;6162632;23;20571;-64
2023/01/04 03:58:34;;;;;;;6.13;0.70;;;;;;;;;;6189118;23;20553;-64
2023/01/04 04:01:02;;;;;;;3.60;0.55;;;;;;;;;;6177838;23;20027;-65
2023/01/04 04:09:02;;;;;;;6.18;0.55;;;;;;;;;;6182839;23;20021;-65
2023/01/04 04:11:30;;;;;;;3.65;0.40;;;;;;;;;;6179624;23;20013;-65
2023/01/04 04:13:59;;;;;;;3.00;0.50;;;;;;;;;;6186502;23;20013;-65
2023/01/04 04:16:27;;;;;;;4.27;0.70;;;;;;;;;;6177226;23;20020;-63
2023/01/04 04:18:55;;;;;;;4.85;0.60;;;;;;;;;;6188312;23;20017;-64
2023/01/04 04:21:23;;;;;;;4.07;0.50;;;;;;;;;;6180854;23;20410;-59
2023/01/04 04:23:51;;;;;;;3.33;0.38;;;;;;;;;;6189493;23;20079;-65
2023/01/04 04:26:20;;;;;;;5.15;0.40;;;;;;;;;;6151748;23;20021;-64
2023/01/04 04:28:47;;;;;;;4.87;0.60;;;;;;;;;;6188197;23;20358;-63
2023/01/04 04:31:17;;;;;;;3.72;0.45;;;;;;;;;;6171571;23;20051;-65
2023/01/04 04:33:45;;;;;;;4.60;0.40;;;;;;;;;;6187549;23;20024;-64
2023/01/04 04:36:12;;;;;;;5.53;0.65;;;;;;;;;;6148459;23;20021;-64
2023/01/04 04:38:40;;;;;;;3.47;0.73;;;;;;;;;;6189939;23;20099;-64
2023/01/04 04:43:55;;;;;;;5.07;0.77;;;;;;;;;;6192651;23;20056;-63
2023/01/04 04:46:23;;;;;;;6.53;0.68;;;;;;;;;;6182328;23;20070;-56
2023/01/04 04:48:51;;;;;;;5.70;0.88;;;;;;;;;;6175198;23;20435;-63
2023/01/04 04:51:18;;;;;;;4.78;0.52;;;;;;;;;;6157418;23;20103;-63
2023/01/04 04:53:47;;;;;;;8.13;1.10;;;;;;;;;;6179402;23;20542;-65
2023/01/04 04:56:15;;;;;;;3.10;0.43;;;;;;;;;;6180163;23;20039;-64
2023/01/04 04:58:42;;;;;;;2.80;0.40;;;;;;;;;;6175192;23;20016;-63
2023/01/04 05:01:12;;;;;;;4.80;0.40;;;;;;;;;;6182806;23;20067;-64
2023/01/04 05:03:40;;;;;;;2.58;0.40;;;;;;;;;;6175505;23;20376;-64
2023/01/04 05:06:07;;;;;;;3.00;0.30;;;;;;;;;;6188286;23;20016;-63
2023/01/04 05:08:35;;;;;;;2.83;0.52;;;;;;;;;;6178159;23;20048;-64
2023/01/04 05:11:05;;;;;;;6.68;0.50;;;;;;;;;;6189222;23;20016;-58
2023/01/04 05:13:31;;;;;;;3.97;0.40;;;;;;;;;;6181514;23;20036;-63
2023/01/04 05:15:59;;;;;;;3.78;0.50;;;;;;;;;;6191839;23;20017;-63
2023/01/04 05:18:33;;;;;;;2.27;0.30;;;;;;;;;;6184218;23;20044;-63
2023/01/04 05:21:02;;;;;;;3.92;0.40;;;;;;;;;;6190670;23;20546;-63
2023/01/04 05:23:31;;;;;;;2.40;0.47;;;;;;;;;;6186031;23;20012;-63
2023/01/04 05:25:59;;;;;;;3.03;0.50;;;;;;;;;;6185689;23;20016;-63
2023/01/04 05:28:28;;;;;;;2.72;0.35;;;;;;;;;;6192018;23;20416;-65
2023/01/04 05:30:55;;;;;;;2.57;0.50;;;;;;;;;;6184946;23;20031;-63
2023/01/04 05:33:24;;;;;;;1.88;0.30;;;;;;;;;;6186670;23;20055;-63
2023/01/04 05:35:54;;;;;;;3.85;0.30;;;;;;;;;;6158834;23;20016;-63
2023/01/04 05:38:22;;;;;;;3.00;0.30;;;;;;;;;;6187153;23;20047;-63
2023/01/04 05:40:50;;;;;;;4.25;0.82;;;;;;;;;;6182045;23;20064;-63
2023/01/04 05:43:19;;;;;;;3.27;0.30;;;;;;;;;;6195853;23;20024;-63
2023/01/04 05:45:47;;;;;;;4.70;0.40;;;;;;;;;;6172821;23;20575;-63
2023/01/04 05:48:15;;;;;;;3.35;0.35;;;;;;;;;;6186843;23;20167;-63
2023/01/04 05:50:44;;;;;;;1.77;0.40;;;;;;;;;;6177186;23;20606;-63
2023/01/04 05:53:16;;;;;;;4.63;0.40;;;;;;;;;;6192439;23;20024;-62
2023/01/04 05:55:43;;;;;;;1.93;0.30;;;;;;;;;;6174437;23;20017;-59
2023/01/04 05:58:11;;;;;;;2.10;0.30;;;;;;;;;;6189748;23;20031;-63
2023/01/04 06:00:38;;;;;;;1.38;0.20;;;;;;;;;;6154648;23;20036;-63
2023/01/04 06:03:06;;;;;;;1.98;0.40;;;;;;;;;;6184364;23;20008;-63
2023/01/04 06:05:34;;;;;;;1.90;0.20;;;;;;;;;;6179611;23;20040;-63
2023/01/04 06:08:02;;;;;;;3.97;0.40;;;;;;;;;;6190879;23;20008;-62
2023/01/04 06:10:37;;;;;;;2.30;0.30;;;;;;;;;;6181028;23;20437;-63
2023/01/04 06:13:04;;;;;;;1.48;0.28;;;;;;;;;;6182856;23;20092;-61
2023/01/04 06:15:32;;;;;;;2.00;0.30;;;;;;;;;;6191645;23;20051;-61
2023/01/04 06:18:05;;;;;;;2.83;0.50;;;;;;;;;;6184253;23;20568;-63
2023/01/04 06:20:39;;;;;;;4.43;0.50;;;;;;;;;;6186479;23;20464;-63
2023/01/04 06:23:07;;;;;;;9.63;1.20;;;;;;;;;;6179025;23;20070;-62
2023/01/04 06:25:37;;;;;;;4.50;0.52;;;;;;;;;;6189378;23;20078;-61
2023/01/04 06:28:04;;;;;;;6.72;0.68;;;;;;;;;;6179072;23;20016;-62
2023/01/04 06:30:32;;;;;;;5.05;0.85;;;;;;;;;;6182736;23;20534;-62
2023/01/04 06:33:00;;;;;;;9.70;1.67;;;;;;;;;;6177732;23;20026;-62
2023/01/04 06:35:27;;;;;;;11.20;0.90;;;;;;;;;;6188716;23;20035;-63
2023/01/04 06:37:55;;;;;;;20.33;1.65;;;;;;;;;;6182279;23;20411;-62
2023/01/04 06:40:22;;;;;;;8.80;0.93;;;;;;;;;;6189424;23;20040;-62
2023/01/04 06:42:51;;;;;;;9.43;0.70;;;;;;;;;;6183736;23;20024;-62
2023/01/04 06:45:19;;;;;;;12.60;1.23;;;;;;;;;;6191442;23;20414;-62
2023/01/04 06:47:47;;;;;;;9.60;1.70;;;;;;;;;;6167944;23;20369;-62
2023/01/04 06:50:15;;;;;;;10.85;1.40;;;;;;;;;;6184537;23;20016;-62
2023/01/04 06:52:43;;;;;;;9.43;1.65;;;;;;;;;;6175458;23;20348;-63
2023/01/04 06:55:12;;;;;;;12.05;3.08;;;;;;;;;;6189878;23;20088;-63
2023/01/04 06:57:40;;;;;;;14.73;1.20;;;;;;;;;;6185480;23;20670;-63
2023/01/04 07:00:12;;;;;;;9.35;1.10;;;;;;;;;;6179765;23;20016;-63
2023/01/04 07:02:40;;;;;;;12.98;1.77;;;;;;;;;;6184963;23;20025;-64
2023/01/04 07:05:28;;;;;;;13.32;1.23;;;;;;;;;;6163155;23;20020;-63
2023/01/04 07:07:55;;;;;;;12.40;1.70;;;;;;;;;;6190274;23;20060;-62
2023/01/04 07:10:29;;;;;;;9.70;1.73;;;;;;;;;;6178980;23;20056;-64
2023/01/04 07:12:57;;;;;;;13.10;1.20;;;;;;;;;;6189001;23;20017;-63
2023/01/04 07:15:26;;;;;;;14.25;2.03;;;;;;;;;;6184907;23;20044;-60
2023/01/04 07:18:06;;;;;;;12.65;1.80;;;;;;;;;;6180047;23;20266;-63
2023/01/04 07:20:34;;;;;;;8.98;1.15;;;;;;;;;;6185655;23;20017;-64
2023/01/04 07:23:02;;;;;;;14.10;2.23;;;;;;;;;;6183076;23;20013;-63
2023/01/04 07:25:29;;;;;;;14.50;2.03;;;;;;;;;;6152252;23;20016;-63
2023/01/04 07:27:57;;;;;;;15.45;1.38;;;;;;;;;;6184589;23;20088;-64
2023/01/04 07:30:26;;;;;;;10.77;1.23;;;;;;;;;;6185679;23;20017;-64
2023/01/04 07:32:55;;;;;;;15.88;2.00;;;;;;;;;;6181782;23;20083;-63
2023/01/04 07:35:23;;;;;;;18.20;2.37;;;;;;;;;;6192717;23;20013;-63
2023/01/04 07:37:51;;;;;;;17.67;2.10;;;;;;;;;;6177977;23;20016;-63
2023/01/04 07:40:26;;;;;;;14.23;1.40;;;;;;;;;;6184926;23;20682;-63
2023/01/04 07:42:55;;;;;;;15.77;2.53;;;;;;;;;;6190593;23;20017;-63
2023/01/04 07:45:27;;;;;;;19.48;1.83;;;;;;;;;;6183720;23;20047;-64
2023/01/04 07:47:57;;;;;;;11.10;1.20;;;;;;;;;;6184414;23;20051;-64
2023/01/04 07:50:27;;;;;;;15.38;1.90;;;;;;;;;;6180777;23;20016;-65
2023/01/04 07:52:56;;;;;;;12.63;1.50;;;;;;;;;;6162440;23;20028;-64
2023/01/04 07:55:23;;;;;;;12.43;2.33;;;;;;;;;;6178214;23;20664;-64
2023/01/04 07:57:52;;;;;;;24.30;2.75;;;;;;;;;;6181067;23;20017;-64
2023/01/04 08:00:20;;;;;;;21.83;2.23;;;;;;;;;;6182012;23;20063;-63
2023/01/04 08:02:48;;;;;;;18.42;2.22;;;;;;;;;;6183367;23;20047;-64
2023/01/04 08:05:17;;;;;;;20.08;1.92;;;;;;;;;;6182848;23;20436;-64
2023/01/04 08:07:45;;;;;;;13.30;1.48;;;;;;;;;;6182389;23;20024;-64
2023/01/04 08:10:13;;;;;;;13.00;1.55;;;;;;;;;;6178499;23;20031;-64
2023/01/04 08:12:41;;;;;;;14.17;1.77;;;;;;;;;;6182688;23;20021;-64
2023/01/04 08:15:09;;;;;;;13.93;1.75;;;;;;;;;;6177264;23;20092;-64
2023/01/04 08:17:37;;;;;;;22.65;2.20;;;;;;;;;;6182066;23;20016;-66
2023/01/04 08:20:06;;;;;;;10.35;1.55;;;;;;;;;;6183316;23;20063;-64
2023/01/04 08:22:36;;;;;;;18.45;1.63;;;;;;;;;;6183516;23;20108;-64
2023/01/04 08:25:04;;;;;;;16.07;1.63;;;;;;;;;;6191124;23;20016;-65
2023/01/04 08:27:32;;;;;;;18.45;2.10;;;;;;;;;;6181435;23;20099;-64
2023/01/04 08:30:00;;;;;;;17.42;2.10;;;;;;;;;;6182521;23;20059;-65
2023/01/04 08:32:28;;;;;;;14.27;2.50;;;;;;;;;;6185762;23;20467;-65
2023/01/04 08:34:55;;;;;;;18.30;2.20;;;;;;;;;;6184967;23;20044;-65
2023/01/04 08:37:23;;;;;;;14.83;2.53;;;;;;;;;;6186966;23;20379;-65
2023/01/04 08:39:52;;;;;;;19.88;2.70;;;;;;;;;;6156384;23;20468;-65
2023/01/04 08:42:20;;;;;;;17.25;2.30;;;;;;;;;;6187712;23;20044;-64
2023/01/04 08:44:59;;;;;;;17.45;2.88;;;;;;;;;;6191127;23;20020;-65
2023/01/04 08:47:31;;;;;;;18.30;1.77;;;;;;;;;;6177556;23;20477;-65
2023/01/04 08:49:58;;;;;;;21.10;2.07;;;;;;;;;;6185907;23;20013;-65
2023/01/04 08:52:34;;;;;;;10.10;1.45;;;;;;;;;;6181121;23;20391;-65
2023/01/04 08:55:03;;;;;;;22.38;2.42;;;;;;;;;;6188366;23;20020;-65
2023/01/04 08:57:40;;;;;;;16.40;2.95;;;;;;;;;;6186557;23;20020;-64
2023/01/04 09:00:09;;;;;;;18.77;2.45;;;;;;;;;;6178735;23;20016;-64
2023/01/04 09:02:37;;;;;;;17.03;2.87;;;;;;;;;;6190264;23;20021;-65
2023/01/04 09:05:05;;;;;;;22.30;2.80;;;;;;;;;;6175951;23;20533;-62
2023/01/04 09:07:34;;;;;;;20.42;2.42;;;;;;;;;;6180448;23;20074;-65
2023/01/04 09:10:03;;;;;;;18.88;2.35;;;;;;;;;;6180815;23;20044;-64
2023/01/04 09:12:31;;;;;;;23.30;2.78;;;;;;;;;;6178661;23;20039;-64
2023/01/04 09:14:59;;;;;;;15.57;1.73;;;;;;;;;;6174207;23;20091;-66
2023/01/04 09:17:27;;;;;;;15.13;1.35;;;;;;;;;;6182290;23;20040;-63
2023/01/04 09:19:58;;;;;;;18.35;2.22;;;;;;;;;;6173997;23;20738;-65
2023/01/04 09:22:27;;;;;;;15.35;1.98;;;;;;;;;;6187193;23;20374;-64
2023/01/04 09:24:55;;;;;;;12.77;1.90;;;;;;;;;;6171751;23;20079;-63
2023/01/04 09:27:25;;;;;;;19.63;2.67;;;;;;;;;;6185706;23;20013;-65
2023/01/04 09:29:53;;;;;;;21.58;2.08;;;;;;;;;;6155848;23;20281;-64
2023/01/04 09:32:21;;;;;;;23.23;2.13;;;;;;;;;;6169422;23;20016;-65
2023/01/04 09:34:48;;;;;;;25.85;2.45;;;;;;;;;;6176648;23;20510;-65
2023/01/04 09:37:16;;;;;;;15.05;1.67;;;;;;;;;;6176590;23;20448;-64
2023/01/04 09:39:46;;;;;;;17.50;2.63;;;;;;;;;;6172415;23;20562;-62
2023/01/04 09:42:17;;;;;;;19.67;2.50;;;;;;;;;;6154698;23;20012;-64
2023/01/04 09:44:48;;;;;;;18.75;2.28;;;;;;;;;;6175821;23;20534;-65
2023/01/04 09:47:39;;;;;;;16.77;3.00;;;;;;;;;;6140807;23;20016;-64
2023/01/04 09:50:25;;;;;;;12.48;2.17;;;;;;;;;;6139951;23;20027;-56
2023/01/04 09:52:57;;;;;;;13.30;1.67;;;;;;;;;;6174719;23;20017;-65
2023/01/04 09:55:27;;;;;;;16.45;1.60;;;;;;;;;;6165280;23;20013;-65
2023/01/04 09:58:23;;;;;;;26.08;2.08;;;;;;;;;;6182074;23;20101;-65
2023/01/04 10:00:57;;;;;;;17.33;2.65;;;;;;;;;;6169228;23;20443;-65
2023/01/04 10:03:28;;;;;;;19.30;2.60;;;;;;;;;;6170324;23;20116;-65
2023/01/04 10:05:56;;;;;;;19.57;2.10;;;;;;;;;;6180291;23;20044;-65
2023/01/04 10:08:24;;;;;;;24.95;2.38;;;;;;;;;;6171060;23;20072;-64
2023/01/04 10:10:58;;;;;;;16.23;2.30;;;;;;;;;;6166416;23;20025;-65
2023/01/04 10:13:32;;;;;;;27.25;3.40;;;;;;;;;;6175104;23;20430;-64
2023/01/04 10:16:07;;;;;;;20.27;2.50;;;;;;;;;;6181390;23;20048;-65
2023/01/04 10:18:39;;;;;;;10.93;1.50;;;;;;;;;;6174895;23;20036;-64
2023/01/04 10:21:32;;;;;;;20.98;3.40;;;;;;;;;;6166426;23;20290;-64
2023/01/04 10:24:23;;;;;;;17.50;2.35;;;;;;;;;;6181561;23;20398;-65
2023/01/04 10:26:55;;;;;;;15.90;2.00;;;;;;;;;;6177761;23;20024;-65
2023/01/04 10:29:30;;;;;;;18.70;2.50;;;;;;;;;;6165399;23;20447;-64
2023/01/04 10:32:01;;;;;;;14.93;2.10;;;;;;;;;;6156688;23;20083;-64
2023/01/04 10:34:30;;;;;;;18.10;3.40;;;;;;;;;;6177004;23;20387;-66
2023/01/04 10:36:59;;;;;;;14.65;2.15;;;;;;;;;;6185383;23;20056;-66
2023/01/04 10:39:29;;;;;;;21.02;2.63;;;;;;;;;;6177541;23;20078;-64
2023/01/04 10:42:00;;;;;;;23.95;2.83;;;;;;;;;;6192736;23;20021;-65
2023/01/04 10:44:33;;;;;;;11.73;1.40;;;;;;;;;;6181611;23;20021;-64
2023/01/04 10:47:04;;;;;;;9.85;1.95;;;;;;;;;;6183299;23;20017;-65
2023/01/04 10:49:37;;;;;;;11.55;1.73;;;;;;;;;;6152283;23;20031;-65
2023/01/04 10:52:08;;;;;;;16.65;2.25;;;;;;;;;;6179805;23;20070;-65
2023/01/04 10:54:38;;;;;;;13.85;2.08;;;;;;;;;;6188076;23;20013;-65
2023/01/04 10:57:08;;;;;;;13.00;1.87;;;;;;;;;;6180960;23;20070;-65
2023/01/04 10:59:38;;;;;;;14.75;2.40;;;;;;;;;;6192054;23;20013;-65
2023/01/04 11:02:13;;;;;;;9.70;1.35;;;;;;;;;;6178444;23;20017;-65
2023/01/04 11:04:44;;;;;;;16.23;2.72;;;;;;;;;;6184321;23;20095;-65
2023/01/04 11:07:15;;;;;;;17.02;2.47;;;;;;;;;;6182009;23;20023;-65
2023/01/04 11:09:55;;;;;;;11.50;1.47;;;;;;;;;;6183126;23;20020;-65
2023/01/04 11:12:24;;;;;;;11.60;1.73;;;;;;;;;;6194124;23;20044;-65
2023/01/04 11:14:52;;;;;;;29.25;2.65;;;;;;;;;;6178633;23;20179;-65
2023/01/04 11:17:21;;;;;;;18.23;2.53;;;;;;;;;;6185998;23;20028;-64
2023/01/04 11:19:49;;;;;;;23.20;3.10;;;;;;;;;;6177936;23;20012;-65
2023/01/04 11:22:19;;;;;;;16.53;2.10;;;;;;;;;;6187575;23;20027;-63
2023/01/04 11:24:49;;;;;;;26.67;3.28;;;;;;;;;;6172874;23;20499;-65
2023/01/04 11:27:40;;;;;;;19.83;2.35;;;;;;;;;;6172293;23;20017;-65
2023/01/04 11:30:13;;;;;;;16.90;2.22;;;;;;;;;;6180581;23;20055;-65
2023/01/04 11:32:47;;;;;;;16.73;1.85;;;;;;;;;;6180418;23;20476;-65
2023/01/04 11:35:15;;;;;;;21.80;3.03;;;;;;;;;;6158559;23;20052;-65
2023/01/04 11:37:42;;;;;;;23.10;2.63;;;;;;;;;;6179258;23;20013;-65
2023/01/04 11:40:28;;;;;;;18.00;3.13;;;;;;;;;;6162086;23;20389;-65
2023/01/04 11:43:10;;;;;;;18.83;1.85;;;;;;;;;;6185293;23;20016;-64
2023/01/04 11:45:38;;;;;;;15.32;1.88;;;;;;;;;;6177383;23;20016;-66
2023/01/04 11:48:14;;;;;;;16.80;1.97;;;;;;;;;;6182054;23;20009;-66
2023/01/04 11:50:42;;;;;;;15.90;1.92;;;;;;;;;;6182215;23;20456;-65
2023/01/04 11:53:24;;;;;;;18.02;2.78;;;;;;;;;;6191521;23;20087;-64
2023/01/04 11:55:52;;;;;;;18.10;1.95;;;;;;;;;;6169615;23;20044;-64
2023/01/04 11:58:20;;;;;;;20.90;2.15;;;;;;;;;;6185388;23;20020;-64
2023/01/04 12:00:52;;;;;;;23.40;2.60;;;;;;;;;;6145985;23;20036;-65
2023/01/04 12:03:26;;;;;;;21.20;3.33;;;;;;;;;;6177708;23;20100;-66
2023/01/04 12:05:54;;;;;;;14.38;2.00;;;;;;;;;;6158764;23;20462;-65
2023/01/04 12:08:27;;;;;;;13.43;1.73;;;;;;;;;;6176613;23;20020;-65
2023/01/04 12:10:55;;;;;;;17.70;3.03;;;;;;;;;;6187167;23;20482;-65
2023/01/04 12:13:23;;;;;;;18.60;3.63;;;;;;;;;;6182755;23;20051;-65
2023/01/04 12:15:57;;;;;;;19.70;3.47;;;;;;;;;;6163110;23;20024;-65
2023/01/04 12:18:30;;;;;;;19.00;2.53;;;;;;;;;;6135967;23;20052;-65
2023/01/04 12:20:59;;;;;;;13.57;2.53;;;;;;;;;;6164379;23;20475;-65
2023/01/04 12:23:30;;;;;;;14.23;2.22;;;;;;;;;;6164438;23;20430;-66
2023/01/04 12:25:57;;;;;;;16.93;2.17;;;;;;;;;;6160381;23;20017;-64
2023/01/04 12:28:29;;;;;;;15.20;1.92;;;;;;;;;;6167849;23;20123;-64
2023/01/04 12:31:15;;;;;;;15.27;1.92;;;;;;;;;;6182107;23;20016;-66
2023/01/04 12:33:48;;;;;;;20.27;1.95;;;;;;;;;;6187495;23;20017;-64
2023/01/04 12:36:17;;;;;;;9.73;1.20;;;;;;;;;;6184605;23;20017;-65
2023/01/04 12:39:02;;;;;;;18.23;1.77;;;;;;;;;;6189543;23;20031;-62
2023/01/04 12:42:00;;;;;;;17.35;1.85;;;;;;;;;;6157012;23;20024;-65
2023/01/04 12:44:46;;;;;;;13.25;1.80;;;;;;;;;;6179237;23;20023;-65
2023/01/04 12:50:17;;;;;;;18.52;1.73;;;;;;;;;;6182828;23;20020;-65
2023/01/04 12:52:45;;;;;;;15.17;2.43;;;;;;;;;;6154640;23;20103;-57
2023/01/04 12:55:56;;;;;;;12.75;1.58;;;;;;;;;;6181739;23;20348;-64
2023/01/04 12:58:55;;;;;;;16.45;2.20;;;;;;;;;;6175007;23;20049;-67
2023/01/04 13:02:08;;;;;;;15.10;2.13;;;;;;;;;;6173187;23;20024;-65
2023/01/04 13:04:40;;;;;;;9.15;1.58;;;;;;;;;;6182244;23;20106;-65
2023/01/04 13:07:13;;;;;;;15.17;1.90;;;;;;;;;;6176863;23;20017;-66
2023/01/04 13:09:43;;;;;;;13.80;1.63;;;;;;;;;;6184685;23;20017;-66
2023/01/04 13:12:18;;;;;;;16.55;2.15;;;;;;;;;;6182596;23;20028;-67
2023/01/04 13:14:49;;;;;;;24.20;2.60;;;;;;;;;;6182817;23;20337;-66
2023/01/04 13:17:18;;;;;;;14.02;2.00;;;;;;;;;;6187969;23;20016;-66
2023/01/04 13:19:46;;;;;;;16.40;2.43;;;;;;;;;;6177302;23;20029;-65
2023/01/04 13:22:24;;;;;;;18.25;2.45;;;;;;;;;;6179376;23;20087;-67
2023/01/04 13:24:57;;;;;;;19.80;2.38;;;;;;;;;;6179743;23;20108;-66
2023/01/04 13:27:25;;;;;;;19.52;2.75;;;;;;;;;;6167419;23;20324;-58
2023/01/04 13:29:52;;;;;;;21.85;2.10;;;;;;;;;;6177745;23;20012;-65
2023/01/04 13:32:22;;;;;;;23.47;3.47;;;;;;;;;;6178393;23;20009;-65
2023/01/04 13:34:51;;;;;;;17.02;2.55;;;;;;;;;;6143846;23;20564;-66
2023/01/04 13:37:25;;;;;;;10.65;1.75;;;;;;;;;;6136941;23;20037;-65
2023/01/04 13:40:00;;;;;;;24.35;2.58;;;;;;;;;;6167485;23;20799;-66
2023/01/04 13:42:30;;;;;;;22.63;2.28;;;;;;;;;;6177910;23;20051;-66
2023/01/04 13:45:12;;;;;;;34.57;3.70;;;;;;;;;;6180506;23;20050;-66
2023/01/04 13:47:50;;;;;;;17.23;2.97;;;;;;;;;;6173594;23;20027;-66
2023/01/04 13:50:27;;;;;;;21.55;2.88;;;;;;;;;;6147059;23;20095;-67
2023/01/04 13:53:00;;;;;;;12.55;1.80;;;;;;;;;;6099200;22;20858;-43
2023/01/04 13:55:36;;;;;;;20.70;2.17;;;;;;;;;;6140928;23;20027;-42
2023/01/04 13:58:04;;;;;;;22.13;2.40;;;;;;;;;;6139340;23;20359;-42
2023/01/04 14:00:43;;;;;;;16.38;2.55;;;;;;;;;;6166507;23;20028;-42
2023/01/04 14:03:14;;;;;;;10.75;2.00;;;;;;;;;;6146746;23;20434;-42
2023/01/04 14:05:47;;;;;;;19.05;2.03;;;;;;;;;;6179127;23;20017;-45
2023/01/04 14:08:20;;;;;;;21.45;2.00;;;;;;;;;;6183713;23;20044;-42
2023/01/04 14:10:49;;;;;;;13.77;2.73;;;;;;;;;;6178243;23;20020;-42
2023/01/04 14:13:17;;;;;;;18.15;2.70;;;;;;;;;;6148727;23;20012;-42
2023/01/04 14:15:44;;;;;;;21.27;2.35;;;;;;;;;;6188790;23;20017;-42
2023/01/04 14:18:33;;;;;;;17.55;2.15;;;;;;;;;;6181688;23;20016;-42
2023/01/04 14:21:01;;;;;;;21.30;3.10;;;;;;;;;;6169627;23;20363;-42
2023/01/04 14:23:33;;;;;;;20.03;2.50;;;;;;;;;;6186691;23;20052;-46
2023/01/04 14:26:01;;;;;;;21.63;2.28;;;;;;;;;;6180762;23;20020;-42
2023/01/04 14:28:31;;;;;;;17.95;2.67;;;;;;;;;;6172562;23;20072;-45
2023/01/04 14:31:19;;;;;;;26.13;3.17;;;;;;;;;;6192511;23;20009;-41
2023/01/04 14:33:48;;;;;;;16.77;2.63;;;;;;;;;;6163211;23;20517;-42
2023/01/04 14:36:19;;;;;;;15.63;2.60;;;;;;;;;;6185916;23;20439;-42
2023/01/04 14:38:51;;;;;;;14.27;2.08;;;;;;;;;;6175001;23;20028;-42
2023/01/04 14:41:21;;;;;;;24.85;2.75;;;;;;;;;;6180968;23;20386;-43
2023/01/04 14:43:49;;;;;;;16.80;2.40;;;;;;;;;;6189281;23;20435;-42
2023/01/04 14:46:17;;;;;;;14.65;2.38;;;;;;;;;;6180274;23;20040;-41
2023/01/04 14:48:45;;;;;;;14.63;1.90;;;;;;;;;;6190833;23;20017;-41
2023/01/04 14:51:15;;;;;;;22.48;2.67;;;;;;;;;;6175021;23;20044;-42
2023/01/04 14:53:42;;;;;;;23.73;2.72;;;;;;;;;;6195711;23;20103;-42
2023/01/04 14:56:12;;;;;;;28.85;2.97;;;;;;;;;;6209231;23;20575;-43
2023/01/04 14:58:40;;;;;;;20.52;2.80;;;;;;;;;;6204314;23;20036;-42
2023/01/04 15:01:08;;;;;;;28.80;4.03;;;;;;;;;;6205338;23;20458;-43
2023/01/04 15:03:36;;;;;;;12.43;1.73;;;;;;;;;;6211362;23;20016;-41
2023/01/04 15:06:04;;;;;;;21.02;3.72;;;;;;;;;;6203696;23;20123;-42
2023/01/04 15:08:32;;;;;;;24.50;4.35;;;;;;;;;;6215200;23;20012;-43
2023/01/04 15:11:01;;;;;;;18.58;2.92;;;;;;;;;;6205718;23;20079;-44
2023/01/04 15:13:30;;;;;;;25.20;2.67;;;;;;;;;;6214230;23;20023;-42
2023/01/04 15:16:06;;;;;;;17.52;1.63;;;;;;;;;;6208680;23;20012;-42
2023/01/04 15:18:36;;;;;;;21.55;2.90;;;;;;;;;;6209744;23;20529;-43
2023/01/04 15:21:04;;;;;;;20.65;2.63;;;;;;;;;;6209238;23;20265;-42
2023/01/04 15:23:32;;;;;;;17.58;2.35;;;;;;;;;;6206951;23;20024;-41
2023/01/04 15:26:00;;;;;;;26.00;3.20;;;;;;;;;;6218757;23;20016;-43
2023/01/04 15:28:29;;;;;;;20.25;2.42;;;;;;;;;;6199246;23;20020;-43
2023/01/04 15:30:57;;;;;;;20.52;3.03;;;;;;;;;;6220345;23;20039;-41
2023/01/04 15:33:30;;;;;;;20.92;2.65;;;;;;;;;;6208152;23;20458;-42
2023/01/04 15:35:59;;;;;;;25.00;2.95;;;;;;;;;;6217838;23;20047;-42
2023/01/04 15:38:27;;;;;;;14.63;1.67;;;;;;;;;;6204000;23;20531;-42
2023/01/04 15:41:02;;;;;;;20.90;2.65;;;;;;;;;;6217642;23;20038;-42
2023/01/04 15:43:32;;;;;;;24.10;3.33;;;;;;;;;;6209464;23;20119;-43